createdAt,value
2017-01-11T00:00:02.334Z,1006.11
2017-01-11T00:01:02.288Z,1006.04
2017-01-11T00:02:02.297Z,1006.02
2017-01-11T00:03:02.353Z,1005.99
2017-01-11T00:04:02.312Z,1005.99
2017-01-11T00:05:02.317Z,1005.99
2017-01-11T00:06:02.325Z,1006
2017-01-11T00:07:02.331Z,1006.05
2017-01-11T00:08:02.389Z,1006.05
2017-01-11T00:09:02.348Z,1005.97
2017-01-11T00:10:02.355Z,1006.01
2017-01-11T00:11:02.362Z,1006.11
2017-01-11T00:12:02.383Z,1006.07
2017-01-11T00:13:02.376Z,1006.03
2017-01-11T00:14:02.382Z,1006.01
2017-01-11T00:15:02.390Z,1005.97
2017-01-11T00:16:02.397Z,1005.96
2017-01-11T00:17:02.455Z,1006.04
2017-01-11T00:18:02.412Z,1005.98
2017-01-11T00:19:02.469Z,1006.02
2017-01-11T00:20:02.424Z,1006.09
2017-01-11T00:21:02.483Z,1006.01
2017-01-11T00:22:02.441Z,1005.99
2017-01-11T00:23:02.446Z,1005.99
2017-01-11T00:24:02.455Z,1005.95
2017-01-11T00:25:02.461Z,1005.96
2017-01-11T00:26:02.471Z,1005.97
2017-01-11T00:27:02.476Z,1005.93
2017-01-11T00:28:02.486Z,1005.99
2017-01-11T00:29:02.492Z,1005.98
2017-01-11T00:30:02.499Z,1005.93
2017-01-11T00:31:02.506Z,1005.9
2017-01-11T00:32:02.514Z,1005.88
2017-01-11T00:33:02.521Z,1005.79
2017-01-11T00:34:02.528Z,1005.8
2017-01-11T00:35:02.585Z,1005.75
2017-01-11T00:36:02.542Z,1005.79
2017-01-11T00:37:02.551Z,1005.81
2017-01-11T00:38:02.556Z,1005.81
2017-01-11T00:39:02.564Z,1005.86
2017-01-11T00:40:02.571Z,1005.88
2017-01-11T00:41:02.629Z,1005.86
2017-01-11T00:42:02.585Z,1005.78
2017-01-11T00:43:02.592Z,1005.8
2017-01-11T00:44:02.649Z,1005.8
2017-01-11T00:45:02.606Z,1005.81
2017-01-11T00:46:02.665Z,1005.78
2017-01-11T00:47:02.621Z,1005.77
2017-01-11T00:48:02.628Z,1005.79
2017-01-11T00:49:02.684Z,1005.77
2017-01-11T00:50:02.643Z,1005.72
2017-01-11T00:51:02.951Z,1005.78
2017-01-11T00:52:02.658Z,1005.7
2017-01-11T00:53:02.665Z,1005.73
2017-01-11T00:54:02.673Z,1005.72
2017-01-11T00:55:02.729Z,1005.74
2017-01-11T00:56:02.687Z,1005.66
2017-01-11T00:57:02.693Z,1005.67
2017-01-11T00:58:02.752Z,1005.68
2017-01-11T00:59:02.707Z,1005.72
2017-01-11T01:00:02.716Z,1005.77
2017-01-11T01:01:02.774Z,1005.77
2017-01-11T01:02:02.731Z,1005.8
2017-01-11T01:03:02.790Z,1005.8
2017-01-11T01:04:02.795Z,1005.77
2017-01-11T01:05:02.752Z,1005.78
2017-01-11T01:06:02.759Z,1005.82
2017-01-11T01:07:02.768Z,1005.84
2017-01-11T01:08:02.774Z,1005.84
2017-01-11T01:09:02.782Z,1005.83
2017-01-11T01:10:02.839Z,1005.85
2017-01-11T01:11:02.796Z,1005.84
2017-01-11T01:12:02.854Z,1005.89
2017-01-11T01:13:02.810Z,1005.91
2017-01-11T01:14:02.817Z,1005.92
2017-01-11T01:15:02.876Z,1005.83
2017-01-11T01:16:02.832Z,1005.79
2017-01-11T01:17:02.838Z,1005.72
2017-01-11T01:18:02.898Z,1005.66
2017-01-11T01:19:02.860Z,1005.62
2017-01-11T01:20:02.911Z,1005.57
2017-01-11T01:21:02.869Z,1005.57
2017-01-11T01:22:02.877Z,1005.64
2017-01-11T01:23:02.884Z,1005.67
2017-01-11T01:24:02.890Z,1005.7
2017-01-11T01:25:02.898Z,1005.73
2017-01-11T01:26:02.905Z,1005.77
2017-01-11T01:27:02.962Z,1005.79
2017-01-11T01:29:02.927Z,1005.78
2017-01-11T01:30:02.933Z,1005.74
2017-01-11T01:31:02.941Z,1005.66
2017-01-11T01:32:02.999Z,1005.67
2017-01-11T01:33:02.955Z,1005.66
2017-01-11T01:34:02.964Z,1005.58
2017-01-11T01:35:02.970Z,1005.52
2017-01-11T01:36:02.978Z,1005.51
2017-01-11T01:37:03.034Z,1005.44
2017-01-11T01:38:02.991Z,1005.39
2017-01-11T01:39:02.997Z,1005.39
2017-01-11T01:40:03.007Z,1005.36
2017-01-11T01:41:03.013Z,1005.33
2017-01-11T01:42:03.021Z,1005.32
2017-01-11T01:43:03.027Z,1005.31
2017-01-11T01:44:03.086Z,1005.31
2017-01-11T01:45:03.042Z,1005.38
2017-01-11T01:46:03.050Z,1005.39
2017-01-11T01:47:03.108Z,1005.39
2017-01-11T01:48:03.064Z,1005.36
2017-01-11T01:49:03.072Z,1005.3
2017-01-11T01:50:03.077Z,1005.31
2017-01-11T01:51:03.135Z,1005.32
2017-01-11T01:52:03.153Z,1005.38
2017-01-11T01:53:03.150Z,1005.41
2017-01-11T01:54:03.112Z,1005.35
2017-01-11T01:55:03.114Z,1005.33
2017-01-11T01:56:03.122Z,1005.28
2017-01-11T01:57:03.179Z,1005.27
2017-01-11T01:58:03.184Z,1005.25
2017-01-11T01:59:03.144Z,1005.24
2017-01-11T02:00:03.200Z,1005.25
2017-01-11T02:01:03.211Z,1005.28
2017-01-11T02:02:03.214Z,1005.25
2017-01-11T02:03:03.171Z,1005.23
2017-01-11T02:04:03.229Z,1005.14
2017-01-11T02:05:03.184Z,1005.21
2017-01-11T02:06:03.196Z,1005.14
2017-01-11T02:07:03.204Z,1005.15
2017-01-11T02:08:03.205Z,1005.15
2017-01-11T02:09:03.262Z,1005.25
2017-01-11T02:10:03.270Z,1005.2
2017-01-11T02:11:03.276Z,1005.24
2017-01-11T02:12:03.232Z,1005.21
2017-01-11T02:13:03.240Z,1005.16
2017-01-11T02:14:03.247Z,1005.05
2017-01-11T02:15:03.304Z,1005.06
2017-01-11T02:16:03.311Z,1005.04
2017-01-11T02:17:03.269Z,1005.07
2017-01-11T02:18:03.275Z,1005.11
2017-01-11T02:19:03.281Z,1005.09
2017-01-11T02:20:03.289Z,1005.04
2017-01-11T02:21:03.296Z,1005.08
2017-01-11T02:22:03.304Z,1005.1
2017-01-11T02:23:03.309Z,1005.06
2017-01-11T02:24:03.315Z,1005.08
2017-01-11T02:25:03.373Z,1005.1
2017-01-11T02:26:03.381Z,1005.09
2017-01-11T02:27:03.353Z,1005.09
2017-01-11T02:28:03.343Z,1005.06
2017-01-11T02:29:03.401Z,1005.02
2017-01-11T02:30:03.357Z,1005.02
2017-01-11T02:31:03.414Z,1004.96
2017-01-11T02:32:03.420Z,1004.97
2017-01-11T02:33:03.379Z,1004.86
2017-01-11T02:34:03.435Z,1004.84
2017-01-11T02:35:03.447Z,1004.83
2017-01-11T02:36:03.450Z,1004.88
2017-01-11T02:37:03.406Z,1004.94
2017-01-11T02:38:03.414Z,1004.96
2017-01-11T02:39:03.419Z,1005.02
2017-01-11T02:40:03.432Z,1004.98
2017-01-11T02:41:03.435Z,1004.93
2017-01-11T02:42:03.490Z,1004.81
2017-01-11T02:43:03.499Z,1004.73
2017-01-11T02:44:03.454Z,1004.68
2017-01-11T02:45:03.461Z,1004.71
2017-01-11T02:46:03.469Z,1004.64
2017-01-11T02:47:03.526Z,1004.75
2017-01-11T02:48:03.533Z,1004.71
2017-01-11T02:49:03.488Z,1004.73
2017-01-11T02:50:03.547Z,1004.71
2017-01-11T02:51:03.503Z,1004.66
2017-01-11T02:52:03.560Z,1004.64
2017-01-11T02:53:03.569Z,1004.64
2017-01-11T02:54:03.526Z,1004.62
2017-01-11T02:55:03.533Z,1004.57
2017-01-11T02:56:03.539Z,1004.48
2017-01-11T02:57:03.546Z,1004.41
2017-01-11T02:58:03.554Z,1004.39
2017-01-11T02:59:03.561Z,1004.32
2017-01-11T03:00:03.617Z,1004.34
2017-01-11T03:01:03.574Z,1004.35
2017-01-11T03:02:03.583Z,1004.39
2017-01-11T03:03:03.639Z,1004.36
2017-01-11T03:04:03.595Z,1004.38
2017-01-11T03:05:03.605Z,1004.25
2017-01-11T03:06:03.611Z,1004.23
2017-01-11T03:07:03.618Z,1004.24
2017-01-11T03:08:03.626Z,1004.29
2017-01-11T03:09:03.631Z,1004.33
2017-01-11T03:10:03.640Z,1004.36
2017-01-11T03:11:03.703Z,1004.36
2017-01-11T03:12:03.654Z,1004.36
2017-01-11T03:13:03.712Z,1004.45
2017-01-11T03:14:03.668Z,1004.39
2017-01-11T03:15:03.676Z,1004.47
2017-01-11T03:16:03.733Z,1004.41
2017-01-11T03:17:03.693Z,1004.41
2017-01-11T03:18:03.749Z,1004.42
2017-01-11T03:19:03.753Z,1004.42
2017-01-11T03:20:03.711Z,1004.43
2017-01-11T03:21:03.769Z,1004.37
2017-01-11T03:22:03.725Z,1004.39
2017-01-11T03:23:03.733Z,1004.36
2017-01-11T03:24:03.791Z,1004.39
2017-01-11T03:25:03.747Z,1004.37
2017-01-11T03:26:03.805Z,1004.38
2017-01-11T03:27:03.812Z,1004.4
2017-01-11T03:28:03.819Z,1004.43
2017-01-11T03:29:03.776Z,1004.44
2017-01-11T03:30:03.783Z,1004.47
2017-01-11T03:31:03.790Z,1004.5
2017-01-11T03:32:03.799Z,1004.47
2017-01-11T03:33:03.856Z,1004.47
2017-01-11T03:34:03.814Z,1004.41
2017-01-11T03:35:03.821Z,1004.34
2017-01-11T03:36:03.828Z,1004.37
2017-01-11T03:37:03.835Z,1004.41
2017-01-11T03:38:03.893Z,1004.38
2017-01-11T03:39:03.850Z,1004.41
2017-01-11T03:40:03.857Z,1004.35
2017-01-11T03:41:03.864Z,1004.38
2017-01-11T03:42:03.872Z,1004.36
2017-01-11T03:43:03.878Z,1004.32
2017-01-11T03:44:03.885Z,1004.31
2017-01-11T03:45:03.944Z,1004.27
2017-01-11T03:46:03.951Z,1004.29
2017-01-11T03:47:03.908Z,1004.29
2017-01-11T03:48:03.915Z,1004.32
2017-01-11T03:49:03.972Z,1004.29
2017-01-11T03:50:03.930Z,1004.32
2017-01-11T03:51:03.986Z,1004.29
2017-01-11T03:52:04.026Z,1004.27
2017-01-11T03:53:04.002Z,1004.31
2017-01-11T03:54:03.959Z,1004.28
2017-01-11T03:55:04.016Z,1004.3
2017-01-11T03:56:04.023Z,1004.29
2017-01-11T03:57:03.982Z,1004.31
2017-01-11T03:58:04.038Z,1004.21
2017-01-11T03:59:04.045Z,1004.15
2017-01-11T04:00:04.052Z,1004.16
2017-01-11T04:01:04.010Z,1004.22
2017-01-11T04:02:04.067Z,1004.24
2017-01-11T04:03:04.073Z,1004.27
2017-01-11T04:04:04.031Z,1004.14
2017-01-11T04:05:04.037Z,1004.15
2017-01-11T04:06:04.045Z,1004.07
2017-01-11T04:07:04.057Z,1004.03
2017-01-11T04:08:04.060Z,1003.94
2017-01-11T04:09:04.067Z,1003.98
2017-01-11T04:10:04.073Z,1003.93
2017-01-11T04:11:04.082Z,1003.91
2017-01-11T04:12:04.087Z,1003.84
2017-01-11T04:13:04.095Z,1003.9
2017-01-11T04:14:04.107Z,1003.89
2017-01-11T04:15:04.110Z,1003.86
2017-01-11T04:16:04.117Z,1003.77
2017-01-11T04:17:04.122Z,1003.79
2017-01-11T04:18:04.130Z,1003.72
2017-01-11T04:19:04.139Z,1003.68
2017-01-11T04:20:04.145Z,1003.65
2017-01-11T04:21:04.202Z,1003.63
2017-01-11T04:22:04.210Z,1003.63
2017-01-11T04:23:04.167Z,1003.54
2017-01-11T04:24:04.173Z,1003.52
2017-01-11T04:25:04.182Z,1003.49
2017-01-11T04:26:04.240Z,1003.46
2017-01-11T04:27:04.245Z,1003.45
2017-01-11T04:28:04.253Z,1003.42
2017-01-11T04:29:04.211Z,1003.43
2017-01-11T04:30:04.268Z,1003.42
2017-01-11T04:31:04.223Z,1003.42
2017-01-11T04:32:04.232Z,1003.45
2017-01-11T04:33:04.238Z,1003.46
2017-01-11T04:34:04.298Z,1003.47
2017-01-11T04:35:04.302Z,1003.33
2017-01-11T04:36:04.311Z,1003.47
2017-01-11T04:37:04.320Z,1003.44
2017-01-11T04:38:04.324Z,1003.47
2017-01-11T04:39:04.329Z,1003.37
2017-01-11T04:40:04.336Z,1003.42
2017-01-11T04:41:04.295Z,1003.37
2017-01-11T04:42:04.302Z,1003.41
2017-01-11T04:43:04.310Z,1003.41
2017-01-11T04:44:04.617Z,1003.43
2017-01-11T04:45:04.373Z,1003.49
2017-01-11T04:46:04.381Z,1003.42
2017-01-11T04:47:04.337Z,1003.42
2017-01-11T04:48:04.345Z,1003.36
2017-01-11T04:49:04.351Z,1003.35
2017-01-11T04:50:04.358Z,1003.32
2017-01-11T04:51:04.366Z,1003.42
2017-01-11T04:52:04.372Z,1003.37
2017-01-11T04:53:04.380Z,1003.37
2017-01-11T04:54:04.386Z,1003.38
2017-01-11T04:55:04.394Z,1003.41
2017-01-11T04:56:04.453Z,1003.59
2017-01-11T04:57:04.409Z,1003.48
2017-01-11T04:58:04.465Z,1003.49
2017-01-11T04:59:04.422Z,1003.52
2017-01-11T05:00:04.479Z,1003.45
2017-01-11T05:01:04.436Z,1003.44
2017-01-11T05:02:04.492Z,1003.47
2017-01-11T05:03:04.452Z,1003.32
2017-01-11T05:04:04.507Z,1003.31
2017-01-11T05:05:04.464Z,1003.2
2017-01-11T05:06:04.521Z,1003.15
2017-01-11T05:07:04.480Z,1003.17
2017-01-11T05:08:04.537Z,1003.07
2017-01-11T05:09:04.493Z,1003.06
2017-01-11T05:10:04.553Z,1003.08
2017-01-11T05:11:04.508Z,1003.1
2017-01-11T05:12:04.515Z,1003.07
2017-01-11T05:13:04.522Z,1003.07
2017-01-11T05:14:04.530Z,1003
2017-01-11T05:15:04.536Z,1003
2017-01-11T05:16:04.542Z,1002.93
2017-01-11T05:17:04.601Z,1002.93
2017-01-11T05:18:04.556Z,1002.95
2017-01-11T05:19:04.615Z,1002.93
2017-01-11T05:20:04.571Z,1002.87
2017-01-11T05:21:04.579Z,1002.75
2017-01-11T05:22:04.635Z,1002.71
2017-01-11T05:23:04.592Z,1002.65
2017-01-11T05:24:04.599Z,1002.64
2017-01-11T05:25:04.656Z,1002.63
2017-01-11T05:26:04.613Z,1002.59
2017-01-11T05:27:04.670Z,1002.54
2017-01-11T05:28:04.628Z,1002.6
2017-01-11T05:29:04.684Z,1002.6
2017-01-11T05:30:04.691Z,1002.54
2017-01-11T05:31:04.648Z,1002.6
2017-01-11T05:32:04.656Z,1002.45
2017-01-11T05:33:04.663Z,1002.41
2017-01-11T05:34:04.669Z,1002.39
2017-01-11T05:35:04.726Z,1002.38
2017-01-11T05:36:04.734Z,1002.45
2017-01-11T05:37:04.739Z,1002.33
2017-01-11T05:38:04.697Z,1002.19
2017-01-11T05:39:04.706Z,1002.13
2017-01-11T05:40:04.711Z,1002.18
2017-01-11T05:41:04.719Z,1002.21
2017-01-11T05:42:04.775Z,1002.15
2017-01-11T05:43:04.733Z,1002.02
2017-01-11T05:44:04.739Z,1001.97
2017-01-11T05:45:04.796Z,1001.89
2017-01-11T05:46:04.802Z,1001.94
2017-01-11T05:47:04.762Z,1001.99
2017-01-11T05:48:04.767Z,1002.01
2017-01-11T05:49:04.774Z,1001.97
2017-01-11T05:50:04.781Z,1001.93
2017-01-11T05:51:04.837Z,1001.81
2017-01-11T05:52:04.845Z,1001.87
2017-01-11T05:53:04.801Z,1001.91
2017-01-11T05:54:04.860Z,1001.78
2017-01-11T05:55:04.866Z,1001.85
2017-01-11T05:56:04.822Z,1001.85
2017-01-11T05:57:04.831Z,1001.78
2017-01-11T05:58:04.887Z,1001.72
2017-01-11T05:59:04.844Z,1001.69
2017-01-11T06:00:04.901Z,1001.74
2017-01-11T06:01:04.909Z,1001.81
2017-01-11T06:02:04.915Z,1001.76
2017-01-11T06:03:04.872Z,1001.75
2017-01-11T06:04:04.928Z,1001.75
2017-01-11T06:05:04.936Z,1001.72
2017-01-11T06:06:04.891Z,1001.71
2017-01-11T06:07:04.899Z,1001.71
2017-01-11T06:08:04.957Z,1001.67
2017-01-11T06:09:04.963Z,1001.68
2017-01-11T06:10:04.919Z,1001.6
2017-01-11T06:11:04.928Z,1001.5
2017-01-11T06:12:04.933Z,1001.56
2017-01-11T06:13:04.941Z,1001.46
2017-01-11T06:14:04.948Z,1001.46
2017-01-11T06:15:04.956Z,1001.41
2017-01-11T06:16:04.963Z,1001.26
2017-01-11T06:17:04.968Z,1001.32
2017-01-11T06:18:04.976Z,1001.35
2017-01-11T06:19:05.033Z,1001.39
2017-01-11T06:20:04.990Z,1001.34
2017-01-11T06:21:04.996Z,1001.22
2017-01-11T06:22:05.004Z,1001.31
2017-01-11T06:23:05.061Z,1001.18
2017-01-11T06:24:05.016Z,1001.25
2017-01-11T06:25:05.022Z,1001.19
2017-01-11T06:26:05.031Z,1001.25
2017-01-11T06:27:05.039Z,1001.25
2017-01-11T06:28:05.094Z,1001.31
2017-01-11T06:29:05.102Z,1001.34
2017-01-11T06:30:05.061Z,1001.38
2017-01-11T06:31:05.067Z,1001.36
2017-01-11T06:32:05.073Z,1001.42
2017-01-11T06:33:05.130Z,1001.38
2017-01-11T06:34:05.090Z,1001.45
2017-01-11T06:35:05.095Z,1001.49
2017-01-11T06:36:05.100Z,1001.55
2017-01-11T06:37:05.107Z,1001.61
2017-01-11T06:38:05.116Z,1001.54
2017-01-11T06:39:05.123Z,1001.63
2017-01-11T06:40:05.129Z,1001.54
2017-01-11T06:41:05.136Z,1001.64
2017-01-11T06:42:05.192Z,1001.7
2017-01-11T06:43:05.154Z,1001.76
2017-01-11T06:44:05.158Z,1001.91
2017-01-11T06:45:05.165Z,1001.93
2017-01-11T06:46:05.172Z,1001.96
2017-01-11T06:47:05.179Z,1002.01
2017-01-11T06:48:05.236Z,1001.91
2017-01-11T06:49:05.242Z,1001.9
2017-01-11T06:50:05.200Z,1001.79
2017-01-11T06:51:05.208Z,1001.86
2017-01-11T06:52:05.215Z,1001.82
2017-01-11T06:53:05.269Z,1001.71
2017-01-11T06:54:05.279Z,1001.75
2017-01-11T06:55:05.236Z,1001.71
2017-01-11T06:56:05.243Z,1001.76
2017-01-11T06:57:05.249Z,1001.76
2017-01-11T06:58:05.256Z,1001.79
2017-01-11T06:59:05.313Z,1001.88
2017-01-11T07:00:05.319Z,1001.88
2017-01-11T07:01:05.276Z,1001.88
2017-01-11T07:02:05.336Z,1001.91
2017-01-11T07:03:05.291Z,1001.86
2017-01-11T07:04:05.308Z,1001.85
2017-01-11T07:05:05.304Z,1001.92
2017-01-11T07:06:05.360Z,1001.81
2017-01-11T07:07:05.319Z,1001.78
2017-01-11T07:08:05.375Z,1001.83
2017-01-11T07:09:05.333Z,1001.83
2017-01-11T07:10:05.339Z,1001.78
2017-01-11T07:11:05.347Z,1001.74
2017-01-11T07:12:05.354Z,1001.73
2017-01-11T07:13:05.410Z,1001.84
2017-01-11T07:14:05.366Z,1001.76
2017-01-11T07:15:05.375Z,1001.69
2017-01-11T07:16:05.382Z,1001.65
2017-01-11T07:17:05.438Z,1001.66
2017-01-11T07:18:05.395Z,1001.72
2017-01-11T07:19:05.401Z,1001.67
2017-01-11T07:20:05.708Z,1001.63
2017-01-11T07:21:05.415Z,1001.51
2017-01-11T07:22:05.423Z,1001.41
2017-01-11T07:23:05.428Z,1001.33
2017-01-11T07:24:05.436Z,1001.36
2017-01-11T07:25:05.442Z,1001.37
2017-01-11T07:26:05.499Z,1001.35
2017-01-11T07:27:05.506Z,1001.33
2017-01-11T07:29:05.521Z,1001.22
2017-01-11T07:30:05.477Z,1001.13
2017-01-11T07:31:05.484Z,1001.14
2017-01-11T07:32:05.491Z,1001.09
2017-01-11T07:33:05.498Z,1001.03
2017-01-11T07:34:05.504Z,1001.03
2017-01-11T07:35:05.561Z,1001
2017-01-11T07:36:05.570Z,1001
2017-01-11T07:37:05.575Z,1000.99
2017-01-11T07:38:05.532Z,1001.06
2017-01-11T07:39:05.539Z,1001
2017-01-11T07:40:05.547Z,1000.95
2017-01-11T07:41:05.554Z,1001.02
2017-01-11T07:42:05.610Z,1000.96
2017-01-11T07:43:05.568Z,1001.08
2017-01-11T07:44:05.574Z,1000.98
2017-01-11T07:45:05.581Z,1000.99
2017-01-11T07:46:05.640Z,1000.94
2017-01-11T07:47:05.646Z,1000.9
2017-01-11T07:48:05.605Z,1000.89
2017-01-11T07:49:05.661Z,1000.89
2017-01-11T07:50:05.621Z,1000.91
2017-01-11T07:51:05.676Z,1000.95
2017-01-11T07:52:05.682Z,1001.06
2017-01-11T07:53:05.690Z,1000.93
2017-01-11T07:54:05.648Z,1001
2017-01-11T07:55:05.704Z,1001.02
2017-01-11T07:56:05.711Z,1000.96
2017-01-11T07:57:05.671Z,1001.02
2017-01-11T07:59:05.682Z,1001.17
2017-01-11T08:00:05.691Z,1001.2
2017-01-11T08:01:05.698Z,1001.22
2017-01-11T08:02:05.707Z,1001.19
2017-01-11T08:03:05.713Z,1001.16
2017-01-11T08:04:05.772Z,1001.12
2017-01-11T08:05:05.730Z,1001.05
2017-01-11T08:06:05.735Z,1000.92
2017-01-11T08:07:05.744Z,1000.82
2017-01-11T08:08:05.752Z,1000.85
2017-01-11T08:09:05.760Z,1000.69
2017-01-11T08:10:05.766Z,1000.67
2017-01-11T08:11:05.774Z,1000.6
2017-01-11T08:12:05.833Z,1000.57
2017-01-11T08:13:05.841Z,1000.57
2017-01-11T08:14:05.796Z,1000.5
2017-01-11T08:15:05.804Z,1000.5
2017-01-11T08:16:05.863Z,1000.58
2017-01-11T08:17:05.824Z,1000.54
2017-01-11T08:18:05.830Z,1000.39
2017-01-11T08:19:05.885Z,1000.32
2017-01-11T08:20:05.843Z,1000.17
2017-01-11T08:21:05.900Z,1000.26
2017-01-11T08:22:05.910Z,1000.33
2017-01-11T08:23:05.866Z,1000.24
2017-01-11T08:24:05.876Z,1000.2
2017-01-11T08:25:05.881Z,1000.27
2017-01-11T08:26:05.891Z,1000.15
2017-01-11T08:27:05.899Z,1000.29
2017-01-11T08:29:05.966Z,1000.34
2017-01-11T08:30:05.923Z,1000.14
2017-01-11T08:31:05.980Z,1000.2
2017-01-11T08:32:05.937Z,1000.2
2017-01-11T08:33:05.946Z,1000.18
2017-01-11T08:35:06.013Z,1000.19
2017-01-11T08:36:05.968Z,1000.06
2017-01-11T08:37:06.028Z,999.96
2017-01-11T08:38:05.985Z,999.92
2017-01-11T08:39:06.042Z,999.88
2017-01-11T08:40:06.000Z,999.85
2017-01-11T08:41:06.008Z,999.77
2017-01-11T08:42:06.016Z,999.74
2017-01-11T08:43:06.024Z,999.59
2017-01-11T08:44:06.033Z,999.62
2017-01-11T08:45:06.040Z,999.57
2017-01-11T08:46:06.098Z,999.45
2017-01-11T08:47:06.106Z,999.56
2017-01-11T08:48:06.062Z,999.45
2017-01-11T08:49:06.071Z,999.51
2017-01-11T08:50:06.080Z,999.39
2017-01-11T08:51:06.089Z,999.39
2017-01-11T08:52:06.146Z,999.36
2017-01-11T08:53:06.103Z,999.38
2017-01-11T08:54:06.111Z,999.34
2017-01-11T08:55:06.119Z,999.3
2017-01-11T08:56:06.127Z,999.39
2017-01-11T08:57:06.135Z,999.32
2017-01-11T08:58:06.144Z,999.25
2017-01-11T08:59:06.151Z,999.42
2017-01-11T09:00:06.158Z,999.3
2017-01-11T09:01:06.216Z,999.26
2017-01-11T09:02:06.172Z,999.19
2017-01-11T09:03:06.184Z,999.12
2017-01-11T09:04:06.190Z,999.16
2017-01-11T09:05:06.248Z,999.14
2017-01-11T09:06:06.206Z,999.13
2017-01-11T09:07:06.215Z,999.14
2017-01-11T09:08:06.273Z,999.14
2017-01-11T09:09:06.280Z,999.2
2017-01-11T09:10:06.238Z,998.88
2017-01-11T09:11:06.247Z,999.05
2017-01-11T09:12:06.254Z,999.09
2017-01-11T09:13:06.315Z,999.03
2017-01-11T09:14:06.270Z,999.04
2017-01-11T09:15:06.329Z,999.01
2017-01-11T09:16:06.336Z,999.03
2017-01-11T09:17:06.294Z,998.97
2017-01-11T09:18:06.302Z,999.05
2017-01-11T09:19:06.360Z,999.21
2017-01-11T09:20:06.318Z,999.03
2017-01-11T09:21:06.375Z,999.11
2017-01-11T09:22:06.334Z,999.12
2017-01-11T09:23:06.391Z,999.09
2017-01-11T09:24:06.400Z,999.02
2017-01-11T09:25:06.359Z,998.91
2017-01-11T09:26:06.367Z,998.91
2017-01-11T09:27:06.373Z,998.84
2017-01-11T09:28:06.381Z,998.93
2017-01-11T09:29:06.389Z,998.85
2017-01-11T09:30:06.398Z,998.83
2017-01-11T09:31:06.455Z,998.87
2017-01-11T09:32:06.462Z,998.72
2017-01-11T09:33:06.423Z,998.78
2017-01-11T09:34:06.428Z,998.72
2017-01-11T09:35:06.737Z,998.66
2017-01-11T09:36:06.496Z,998.67
2017-01-11T09:37:06.505Z,998.7
2017-01-11T09:38:06.460Z,998.76
2017-01-11T09:39:06.469Z,998.8
2017-01-11T09:40:06.476Z,998.8
2017-01-11T09:41:06.486Z,998.71
2017-01-11T09:42:06.492Z,998.69
2017-01-11T09:43:06.501Z,998.76
2017-01-11T09:44:06.509Z,998.75
2017-01-11T09:45:06.516Z,998.88
2017-01-11T09:46:06.524Z,998.89
2017-01-11T09:47:06.532Z,998.68
2017-01-11T09:48:06.591Z,998.79
2017-01-11T09:49:06.548Z,998.8
2017-01-11T09:50:06.556Z,998.85
2017-01-11T09:51:06.566Z,998.75
2017-01-11T09:52:06.578Z,998.63
2017-01-11T09:53:06.581Z,998.57
2017-01-11T09:54:06.640Z,998.49
2017-01-11T09:55:06.597Z,998.49
2017-01-11T09:56:06.604Z,998.49
2017-01-11T09:57:06.662Z,998.5
2017-01-11T09:59:06.679Z,998.4
2017-01-11T10:00:06.687Z,998.66
2017-01-11T10:01:06.696Z,998.61
2017-01-11T10:02:06.704Z,998.54
2017-01-11T10:03:06.710Z,998.42
2017-01-11T10:04:06.720Z,998.4
2017-01-11T10:05:06.727Z,998.26
2017-01-11T10:06:06.833Z,998.21
2017-01-11T10:07:06.693Z,998.12
2017-01-11T10:08:06.751Z,998.13
2017-01-11T10:09:06.759Z,997.97
2017-01-11T10:10:06.765Z,998.01
2017-01-11T10:11:06.774Z,997.92
2017-01-11T10:12:07.682Z,997.91
2017-01-11T10:13:06.790Z,997.91
2017-01-11T10:14:06.797Z,997.94
2017-01-11T10:15:06.755Z,997.89
2017-01-11T10:16:06.813Z,997.87
2017-01-11T10:17:06.822Z,997.9
2017-01-11T10:18:06.830Z,997.88
2017-01-11T10:19:06.838Z,997.8
2017-01-11T10:20:06.845Z,997.78
2017-01-11T10:21:07.103Z,997.71
2017-01-11T10:22:06.860Z,997.6
2017-01-11T10:23:06.870Z,997.54
2017-01-11T10:24:06.825Z,997.53
2017-01-11T10:25:06.887Z,997.55
2017-01-11T10:26:06.843Z,997.51
2017-01-11T10:27:06.900Z,997.52
2017-01-11T10:28:07.809Z,997.5
2017-01-11T10:29:06.914Z,997.5
2017-01-11T10:30:06.924Z,997.49
2017-01-11T10:31:06.933Z,997.47
2017-01-11T10:32:06.891Z,997.47
2017-01-11T10:33:06.946Z,997.49
2017-01-11T10:34:06.906Z,997.57
2017-01-11T10:35:06.964Z,997.48
2017-01-11T10:36:06.919Z,997.54
2017-01-11T10:37:06.977Z,997.48
2017-01-11T10:38:06.988Z,997.39
2017-01-11T10:39:06.995Z,997.38
2017-01-11T10:40:07.002Z,997.34
2017-01-11T10:41:06.960Z,997.29
2017-01-11T10:42:07.019Z,997.31
2017-01-11T10:43:07.928Z,997.24
2017-01-11T10:44:07.034Z,997.28
2017-01-11T10:45:07.042Z,997.22
2017-01-11T10:46:07.002Z,997.12
2017-01-11T10:47:07.308Z,997.09
2017-01-11T10:48:07.065Z,996.98
2017-01-11T10:49:07.024Z,996.96
2017-01-11T10:50:07.082Z,997.17
2017-01-11T10:51:07.041Z,997.05
2017-01-11T10:52:07.099Z,996.89
2017-01-11T10:53:07.106Z,996.81
2017-01-11T10:54:07.114Z,996.78
2017-01-11T10:55:07.123Z,996.8
2017-01-11T10:56:07.081Z,996.9
2017-01-11T10:57:08.889Z,996.93
2017-01-11T10:58:07.147Z,997.02
2017-01-11T10:59:07.155Z,997.04
2017-01-11T11:00:07.313Z,997.02
2017-01-11T11:01:07.120Z,997.03
2017-01-11T11:02:07.129Z,997.04
2017-01-11T11:03:07.186Z,996.94
2017-01-11T11:04:07.194Z,996.96
2017-01-11T11:05:07.202Z,996.97
2017-01-11T11:06:07.760Z,996.9
2017-01-11T11:07:07.222Z,996.84
2017-01-11T11:08:07.228Z,996.78
2017-01-11T11:09:07.234Z,996.72
2017-01-11T11:10:07.393Z,996.72
2017-01-11T11:11:07.500Z,996.73
2017-01-11T11:12:07.309Z,996.69
2017-01-11T11:13:07.216Z,996.75
2017-01-11T11:14:07.275Z,996.79
2017-01-11T11:15:07.333Z,996.75
2017-01-11T11:16:07.291Z,996.83
2017-01-11T11:17:07.298Z,996.67
2017-01-11T11:18:07.306Z,996.74
2017-01-11T11:19:07.314Z,996.76
2017-01-11T11:20:07.323Z,996.67
2017-01-11T11:21:07.281Z,996.75
2017-01-11T11:22:07.689Z,996.78
2017-01-11T11:23:07.345Z,996.7
2017-01-11T11:24:07.405Z,996.68
2017-01-11T11:25:07.363Z,996.71
2017-01-11T11:26:07.371Z,996.63
2017-01-11T11:27:07.378Z,996.64
2017-01-11T11:28:09.791Z,996.63
2017-01-11T11:29:07.398Z,996.54
2017-01-11T11:30:07.405Z,996.56
2017-01-11T11:31:07.412Z,996.52
2017-01-11T11:32:07.420Z,996.5
2017-01-11T11:33:07.429Z,996.45
2017-01-11T11:34:07.441Z,996.46
2017-01-11T11:35:07.394Z,996.45
2017-01-11T11:36:07.403Z,996.53
2017-01-11T11:37:07.610Z,996.56
2017-01-11T11:38:07.468Z,996.46
2017-01-11T11:39:07.476Z,996.48
2017-01-11T11:40:07.584Z,996.36
2017-01-11T11:41:07.494Z,996.27
2017-01-11T11:42:07.501Z,996.34
2017-01-11T11:43:07.459Z,996.29
2017-01-11T11:44:07.517Z,996.34
2017-01-11T11:45:07.529Z,996.43
2017-01-11T11:46:07.482Z,996.31
2017-01-11T11:47:07.941Z,996.32
2017-01-11T11:48:07.550Z,996.27
2017-01-11T11:49:07.557Z,996.12
2017-01-11T11:50:07.565Z,996.23
2017-01-11T11:51:07.624Z,996.33
2017-01-11T11:52:07.582Z,996.31
2017-01-11T11:54:07.596Z,996.3
2017-01-11T11:55:08.156Z,996.26
2017-01-11T11:56:07.664Z,996.23
2017-01-11T11:57:07.721Z,996.22
2017-01-11T11:58:07.879Z,996.17
2017-01-11T11:59:07.639Z,996.17
2017-01-11T12:00:07.645Z,996.13
2017-01-11T12:01:07.652Z,996.19
2017-01-11T12:02:07.662Z,996.16
2017-01-11T12:03:07.767Z,996.06
2017-01-11T12:04:07.674Z,996.11
2017-01-11T12:05:07.632Z,996.13
2017-01-11T12:06:07.691Z,996.11
2017-01-11T12:07:07.748Z,996.12
2017-01-11T12:08:07.656Z,996.14
2017-01-11T12:09:07.712Z,996.15
2017-01-11T12:10:07.921Z,996.17
2017-01-11T12:11:07.729Z,996.19
2017-01-11T12:12:07.736Z,996.3
2017-01-11T12:13:07.944Z,996.29
2017-01-11T12:14:07.702Z,996.35
2017-01-11T12:15:07.759Z,996.25
2017-01-11T12:16:07.767Z,996.39
2017-01-11T12:17:07.776Z,996.35
2017-01-11T12:18:07.786Z,996.17
2017-01-11T12:19:07.789Z,996.27
2017-01-11T12:20:07.800Z,996.21
2017-01-11T12:21:07.758Z,996.23